createdAt,value
2023-04-08T00:00:54.682Z,1012.72
2023-04-08T00:01:54.774Z,1012.69
2023-04-08T00:02:54.751Z,1012.73
2023-04-08T00:03:54.788Z,1012.69
2023-04-08T00:04:54.673Z,1012.72
2023-04-08T00:05:54.616Z,1012.69
2023-04-08T00:06:54.608Z,1012.69
2023-04-08T00:07:54.644Z,1012.71
2023-04-08T00:08:54.591Z,1012.73
2023-04-08T00:09:54.589Z,1012.72
2023-04-08T00:10:54.580Z,1012.70
2023-04-08T00:11:54.562Z,1012.71
2023-04-08T00:12:54.585Z,1012.70
2023-04-08T00:13:54.535Z,1012.67
2023-04-08T00:14:54.522Z,1012.72
2023-04-08T00:15:54.502Z,1012.67
2023-04-08T00:16:54.507Z,1012.70
2023-04-08T00:17:54.656Z,1012.71
2023-04-08T00:18:54.478Z,1012.68
2023-04-08T00:19:54.453Z,1012.70
2023-04-08T00:20:54.459Z,1012.70
2023-04-08T00:21:54.426Z,1012.65
2023-04-08T00:22:54.465Z,1012.63
2023-04-08T00:23:54.395Z,1012.66
2023-04-08T00:24:54.423Z,1012.66
2023-04-08T00:25:54.391Z,1012.68
2023-04-08T00:26:54.379Z,1012.65
2023-04-08T00:27:54.405Z,1012.70
2023-04-08T00:28:54.360Z,1012.66
2023-04-08T00:29:54.346Z,1012.67
2023-04-08T00:30:54.403Z,1012.67
2023-04-08T00:31:54.332Z,1012.66
2023-04-08T00:32:54.363Z,1012.68
2023-04-08T00:33:54.297Z,1012.63
2023-04-08T00:34:54.294Z,1012.69
2023-04-08T00:35:54.321Z,1012.70
2023-04-08T00:36:54.268Z,1012.67
2023-04-08T00:37:54.303Z,1012.74
2023-04-08T00:38:54.248Z,1012.74
2023-04-08T00:39:54.246Z,1012.75
2023-04-08T00:40:54.233Z,1012.80
2023-04-08T00:41:54.220Z,1012.76
2023-04-08T00:42:54.238Z,1012.76
2023-04-08T00:43:54.182Z,1012.76
2023-04-08T00:44:54.191Z,1012.75
2023-04-08T00:45:54.182Z,1012.73
2023-04-08T00:46:54.167Z,1012.74
2023-04-08T00:47:54.236Z,1012.72
2023-04-08T00:48:54.142Z,1012.77
2023-04-08T00:49:54.123Z,1012.72
2023-04-08T00:50:54.111Z,1012.72
2023-04-08T00:51:54.096Z,1012.76
2023-04-08T00:52:54.144Z,1012.77
2023-04-08T00:53:54.058Z,1012.77
2023-04-08T00:54:54.087Z,1012.78
2023-04-08T00:55:54.037Z,1012.76
2023-04-08T00:56:54.053Z,1012.75
2023-04-08T00:57:54.059Z,1012.78
2023-04-08T00:58:54.013Z,1012.78
2023-04-08T00:59:54.008Z,1012.80
2023-04-08T01:00:53.997Z,1012.77
2023-04-08T01:01:54.080Z,1012.81
2023-04-08T01:02:54.117Z,1012.78
2023-04-08T01:03:54.036Z,1012.80
2023-04-08T01:04:53.946Z,1012.81
2023-04-08T01:05:53.925Z,1012.80
2023-04-08T01:06:53.934Z,1012.78
2023-04-08T01:07:54.034Z,1012.81
2023-04-08T01:08:53.905Z,1012.84
2023-04-08T01:09:53.906Z,1012.83
2023-04-08T01:10:53.907Z,1012.85
2023-04-08T01:11:53.875Z,1012.85
2023-04-08T01:12:53.898Z,1012.79
2023-04-08T01:13:53.861Z,1012.82
2023-04-08T01:14:53.841Z,1012.84
2023-04-08T01:15:53.861Z,1012.83
2023-04-08T01:16:53.818Z,1012.85
2023-04-08T01:17:53.856Z,1012.84
2023-04-08T01:18:53.792Z,1012.87
2023-04-08T01:19:53.775Z,1012.87
2023-04-08T01:20:53.754Z,1012.88
2023-04-08T01:21:53.736Z,1012.89
2023-04-08T01:22:53.788Z,1012.91
2023-04-08T01:23:53.715Z,1012.92
2023-04-08T01:24:53.718Z,1012.87
2023-04-08T01:25:53.760Z,1012.89
2023-04-08T01:26:53.691Z,1012.88
2023-04-08T01:27:53.725Z,1012.89
2023-04-08T01:28:53.676Z,1012.88
2023-04-08T01:29:53.643Z,1012.86
2023-04-08T01:30:53.683Z,1012.88
2023-04-08T01:31:53.632Z,1012.86
2023-04-08T01:32:53.741Z,1012.82
2023-04-08T01:33:53.643Z,1012.81
2023-04-08T01:34:53.603Z,1012.81
2023-04-08T01:35:53.657Z,1012.82
2023-04-08T01:36:53.596Z,1012.77
2023-04-08T01:37:53.608Z,1012.77
2023-04-08T01:38:53.556Z,1012.77
2023-04-08T01:39:53.536Z,1012.77
2023-04-08T01:40:53.536Z,1012.77
2023-04-08T01:41:53.515Z,1012.74
2023-04-08T01:42:53.553Z,1012.71
2023-04-08T01:43:53.501Z,1012.76
2023-04-08T01:44:53.485Z,1012.70
2023-04-08T01:45:53.474Z,1012.68
2023-04-08T01:46:53.496Z,1012.70
2023-04-08T01:47:53.595Z,1012.78
2023-04-08T01:48:53.466Z,1012.74
2023-04-08T01:49:53.436Z,1012.76
2023-04-08T01:50:53.416Z,1012.81
2023-04-08T01:51:53.397Z,1012.79
2023-04-08T01:52:53.435Z,1012.80
2023-04-08T01:53:53.391Z,1012.78
2023-04-08T01:54:53.422Z,1012.75
2023-04-08T01:55:53.364Z,1012.82
2023-04-08T01:56:53.395Z,1012.80
2023-04-08T01:57:53.386Z,1012.80
2023-04-08T01:58:53.331Z,1012.87
2023-04-08T01:59:53.412Z,1012.88
2023-04-08T02:00:53.310Z,1012.89
2023-04-08T02:01:53.347Z,1012.89
2023-04-08T02:02:53.511Z,1012.90
2023-04-08T02:03:53.374Z,1012.90
2023-04-08T02:04:53.275Z,1012.92
2023-04-08T02:05:53.253Z,1012.92
2023-04-08T02:06:53.244Z,1012.86
2023-04-08T02:07:53.272Z,1012.96
2023-04-08T02:08:53.212Z,1012.96
2023-04-08T02:09:53.217Z,1012.95
2023-04-08T02:10:53.198Z,1012.96
2023-04-08T02:11:53.189Z,1012.96
2023-04-08T02:12:53.247Z,1012.97
2023-04-08T02:13:53.163Z,1013.01
2023-04-08T02:14:53.166Z,1013.07
2023-04-08T02:15:53.200Z,1013.04
2023-04-08T02:16:53.130Z,1012.99
2023-04-08T02:17:53.184Z,1012.98
2023-04-08T02:18:53.151Z,1013.03
2023-04-08T02:19:53.146Z,1013.00
2023-04-08T02:20:53.071Z,1013.06
2023-04-08T02:21:53.073Z,1013.07
2023-04-08T02:22:53.066Z,1013.09
2023-04-08T02:23:53.102Z,1013.04
2023-04-08T02:24:53.048Z,1013.06
2023-04-08T02:25:53.040Z,1013.02
2023-04-08T02:26:53.016Z,1013.07
2023-04-08T02:27:53.019Z,1013.09
2023-04-08T02:28:53.168Z,1013.08
2023-04-08T02:29:52.976Z,1013.04
2023-04-08T02:30:52.992Z,1013.09
2023-04-08T02:31:53.052Z,1013.06
2023-04-08T02:32:52.994Z,1013.09
2023-04-08T02:33:52.987Z,1013.07
2023-04-08T02:34:52.909Z,1013.10
2023-04-08T02:35:52.938Z,1013.08
2023-04-08T02:36:52.911Z,1013.10
2023-04-08T02:37:52.888Z,1013.12
2023-04-08T02:38:52.990Z,1013.11
2023-04-08T02:39:52.882Z,1013.11
2023-04-08T02:40:52.888Z,1013.10
2023-04-08T02:41:52.846Z,1013.12
2023-04-08T02:42:52.836Z,1013.13
2023-04-08T02:43:52.868Z,1013.12
2023-04-08T02:44:52.810Z,1013.13
2023-04-08T02:45:52.892Z,1013.13
2023-04-08T02:46:52.819Z,1013.12
2023-04-08T02:47:52.801Z,1013.15
2023-04-08T02:48:52.814Z,1013.16
2023-04-08T02:49:52.821Z,1013.14
2023-04-08T02:50:52.745Z,1013.15
2023-04-08T02:51:52.802Z,1013.17
2023-04-08T02:52:52.764Z,1013.15
2023-04-08T02:53:52.805Z,1013.16
2023-04-08T02:54:52.701Z,1013.17
2023-04-08T02:55:52.682Z,1013.17
2023-04-08T02:56:52.691Z,1013.18
2023-04-08T02:57:52.680Z,1013.18
2023-04-08T02:58:52.731Z,1013.22
2023-04-08T02:59:52.671Z,1013.16
2023-04-08T03:00:52.690Z,1013.16
2023-04-08T03:01:52.815Z,1013.19
2023-04-08T03:02:52.815Z,1013.20
2023-04-08T03:03:52.804Z,1013.22
2023-04-08T03:04:52.585Z,1013.21
2023-04-08T03:05:52.580Z,1013.17
2023-04-08T03:06:52.594Z,1013.20
2023-04-08T03:07:52.568Z,1013.16
2023-04-08T03:08:52.784Z,1013.18
2023-04-08T03:09:52.528Z,1013.09
2023-04-08T03:10:52.615Z,1013.12
2023-04-08T03:11:52.599Z,1013.14
2023-04-08T03:12:52.506Z,1013.13
2023-04-08T03:13:52.565Z,1013.14
2023-04-08T03:14:52.481Z,1013.22
2023-04-08T03:15:52.490Z,1013.22
2023-04-08T03:16:52.535Z,1013.29
2023-04-08T03:17:52.472Z,1013.25
2023-04-08T03:18:52.727Z,1013.27
2023-04-08T03:19:52.437Z,1013.31
2023-04-08T03:20:52.413Z,1013.31
2023-04-08T03:21:52.436Z,1013.30
2023-04-08T03:22:52.429Z,1013.30
2023-04-08T03:23:52.469Z,1013.33
2023-04-08T03:24:52.354Z,1013.36
2023-04-08T03:25:52.339Z,1013.35
2023-04-08T03:26:52.327Z,1013.41
2023-04-08T03:27:52.324Z,1013.43
2023-04-08T03:28:52.458Z,1013.46
2023-04-08T03:29:52.308Z,1013.42
2023-04-08T03:30:52.274Z,1013.44
2023-04-08T03:31:52.293Z,1013.45
2023-04-08T03:32:52.376Z,1013.39
2023-04-08T03:33:52.298Z,1013.44
2023-04-08T03:34:52.218Z,1013.46
2023-04-08T03:35:52.258Z,1013.44
2023-04-08T03:36:52.206Z,1013.45
2023-04-08T03:37:52.208Z,1013.44
2023-04-08T03:38:52.434Z,1013.44
2023-04-08T03:39:52.190Z,1013.43
2023-04-08T03:40:52.162Z,1013.46
2023-04-08T03:41:52.157Z,1013.45
2023-04-08T03:42:52.158Z,1013.43
2023-04-08T03:43:52.203Z,1013.44
2023-04-08T03:44:52.118Z,1013.47
2023-04-08T03:45:52.173Z,1013.45
2023-04-08T03:46:52.086Z,1013.43
2023-04-08T03:47:52.161Z,1013.42
2023-04-08T03:48:52.307Z,1013.42
2023-04-08T03:49:52.051Z,1013.41
2023-04-08T03:50:52.047Z,1013.44
2023-04-08T03:51:52.152Z,1013.45
2023-04-08T03:52:52.039Z,1013.46
2023-04-08T03:53:52.050Z,1013.47
2023-04-08T03:54:52.002Z,1013.52
2023-04-08T03:55:51.995Z,1013.51
2023-04-08T03:56:51.976Z,1013.51
2023-04-08T03:57:51.968Z,1013.50
2023-04-08T03:58:52.287Z,1013.50
2023-04-08T03:59:51.932Z,1013.47
2023-04-08T04:00:51.923Z,1013.51
2023-04-08T04:01:51.947Z,1013.51
2023-04-08T04:02:51.924Z,1013.56
2023-04-08T04:03:52.113Z,1013.56
2023-04-08T04:04:51.957Z,1013.58
2023-04-08T04:05:51.870Z,1013.60
2023-04-08T04:06:51.862Z,1013.58
2023-04-08T04:07:51.851Z,1013.60
2023-04-08T04:08:52.021Z,1013.59
2023-04-08T04:09:51.822Z,1013.59
2023-04-08T04:10:51.804Z,1013.62
2023-04-08T04:11:51.801Z,1013.69
2023-04-08T04:12:51.767Z,1013.67
2023-04-08T04:13:51.852Z,1013.68
2023-04-08T04:14:51.757Z,1013.70
2023-04-08T04:15:51.767Z,1013.76
2023-04-08T04:16:51.728Z,1013.70
2023-04-08T04:17:51.744Z,1013.72
2023-04-08T04:18:51.963Z,1013.74
2023-04-08T04:19:51.699Z,1013.78
2023-04-08T04:20:51.702Z,1013.74
2023-04-08T04:21:51.685Z,1013.73
2023-04-08T04:22:51.667Z,1013.78
2023-04-08T04:23:51.705Z,1013.80
2023-04-08T04:24:51.645Z,1013.84
2023-04-08T04:25:51.640Z,1013.84
2023-04-08T04:26:51.615Z,1013.83
2023-04-08T04:27:51.624Z,1013.88
2023-04-08T04:28:51.901Z,1013.86
2023-04-08T04:29:51.620Z,1013.83
2023-04-08T04:30:51.661Z,1013.90
2023-04-08T04:31:51.577Z,1013.89
2023-04-08T04:32:51.627Z,1013.92
2023-04-08T04:33:51.597Z,1013.95
2023-04-08T04:34:51.553Z,1013.93
2023-04-08T04:35:51.531Z,1013.95
2023-04-08T04:36:51.530Z,1013.93
2023-04-08T04:37:51.501Z,1013.92
2023-04-08T04:38:51.881Z,1013.97
2023-04-08T04:39:51.496Z,1014.02
2023-04-08T04:40:51.454Z,1013.92
2023-04-08T04:41:51.451Z,1014.05
2023-04-08T04:42:51.430Z,1014.02
2023-04-08T04:43:51.472Z,1013.99
2023-04-08T04:44:51.406Z,1013.99
2023-04-08T04:45:51.404Z,1013.97
2023-04-08T04:46:51.542Z,1014.00
2023-04-08T04:47:51.435Z,1013.99
2023-04-08T04:48:51.651Z,1013.95
2023-04-08T04:49:51.467Z,1013.95
2023-04-08T04:50:51.370Z,1014.00
2023-04-08T04:51:51.352Z,1014.00
2023-04-08T04:52:51.397Z,1014.02
2023-04-08T04:53:51.385Z,1014.05
2023-04-08T04:54:51.302Z,1014.06
2023-04-08T04:55:51.301Z,1014.05
2023-04-08T04:56:51.304Z,1014.09
2023-04-08T04:57:51.305Z,1014.08
2023-04-08T04:58:51.442Z,1014.11
2023-04-08T04:59:51.276Z,1014.06
2023-04-08T05:00:51.232Z,1014.10
2023-04-08T05:01:51.287Z,1014.14
2023-04-08T05:02:51.354Z,1014.10
2023-04-08T05:03:51.263Z,1014.15
2023-04-08T05:04:51.203Z,1014.10
2023-04-08T05:05:51.184Z,1014.17
2023-04-08T05:06:51.311Z,1014.16
2023-04-08T05:07:51.170Z,1014.18
2023-04-08T05:08:51.360Z,1014.20
2023-04-08T05:09:51.134Z,1014.22
2023-04-08T05:10:51.125Z,1014.22
2023-04-08T05:11:51.113Z,1014.23
2023-04-08T05:12:51.102Z,1014.26
2023-04-08T05:13:51.136Z,1014.26
2023-04-08T05:14:51.079Z,1014.28
2023-04-08T05:15:51.119Z,1014.27
2023-04-08T05:16:51.067Z,1014.31
2023-04-08T05:17:51.084Z,1014.26
2023-04-08T05:18:51.329Z,1014.30
2023-04-08T05:19:51.028Z,1014.28
2023-04-08T05:20:51.020Z,1014.31
2023-04-08T05:21:51.166Z,1014.32
2023-04-08T05:22:51.018Z,1014.33
2023-04-08T05:23:51.023Z,1014.35
2023-04-08T05:24:51.036Z,1014.33
2023-04-08T05:25:50.972Z,1014.34
2023-04-08T05:26:50.955Z,1014.36
2023-04-08T05:27:50.955Z,1014.39
2023-04-08T05:28:51.036Z,1014.41
2023-04-08T05:29:50.977Z,1014.45
2023-04-08T05:30:50.911Z,1014.42
2023-04-08T05:31:50.964Z,1014.42
2023-04-08T05:32:50.959Z,1014.48
2023-04-08T05:33:50.892Z,1014.49
2023-04-08T05:34:50.978Z,1014.45
2023-04-08T05:35:50.918Z,1014.51
2023-04-08T05:36:50.848Z,1014.52
2023-04-08T05:37:50.838Z,1014.58
2023-04-08T05:38:50.984Z,1014.53
2023-04-08T05:39:50.849Z,1014.46
2023-04-08T05:40:50.818Z,1014.50
2023-04-08T05:41:50.782Z,1014.53
2023-04-08T05:42:50.768Z,1014.58
2023-04-08T05:43:50.746Z,1014.52
2023-04-08T05:44:50.813Z,1014.56
2023-04-08T05:45:50.749Z,1014.54
2023-04-08T05:46:50.785Z,1014.56
2023-04-08T05:47:50.797Z,1014.54
2023-04-08T05:48:51.073Z,1014.53
2023-04-08T05:49:51.315Z,1014.58
2023-04-08T05:50:50.697Z,1014.55
2023-04-08T05:51:50.675Z,1014.60
2023-04-08T05:52:50.657Z,1014.57
2023-04-08T05:53:50.656Z,1014.60
2023-04-08T05:54:50.677Z,1014.60
2023-04-08T05:55:50.663Z,1014.68
2023-04-08T05:56:50.614Z,1014.66
2023-04-08T05:57:50.648Z,1014.66
2023-04-08T05:58:50.912Z,1014.65
2023-04-08T05:59:50.636Z,1014.65
2023-04-08T06:00:50.562Z,1014.63
2023-04-08T06:01:50.674Z,1014.69
2023-04-08T06:02:50.778Z,1014.67
2023-04-08T06:03:50.741Z,1014.67
2023-04-08T06:04:50.687Z,1014.73
2023-04-08T06:05:50.488Z,1014.70
2023-04-08T06:06:50.486Z,1014.73
2023-04-08T06:07:50.675Z,1014.67
2023-04-08T06:08:50.558Z,1014.76
2023-04-08T06:09:50.556Z,1014.76
2023-04-08T06:10:50.434Z,1014.77
2023-04-08T06:11:50.430Z,1014.73
2023-04-08T06:12:50.406Z,1014.82
2023-04-08T06:13:50.415Z,1014.78
2023-04-08T06:14:50.425Z,1014.88
2023-04-08T06:15:50.372Z,1014.89
2023-04-08T06:16:50.430Z,1014.87
2023-04-08T06:17:50.422Z,1014.89
2023-04-08T06:18:50.569Z,1014.92
2023-04-08T06:19:50.379Z,1014.92
2023-04-08T06:20:50.507Z,1014.97
2023-04-08T06:21:50.302Z,1014.96
2023-04-08T06:22:50.285Z,1014.91
2023-04-08T06:23:50.304Z,1015.00
2023-04-08T06:24:50.326Z,1015.03
2023-04-08T06:25:50.283Z,1015.04
2023-04-08T06:26:50.249Z,1015.04
2023-04-08T06:27:50.255Z,1015.07
2023-04-08T06:28:50.407Z,1015.05
2023-04-08T06:29:50.255Z,1015.03
2023-04-08T06:30:50.202Z,1015.02
2023-04-08T06:31:50.256Z,1015.09
2023-04-08T06:32:50.220Z,1015.09
2023-04-08T06:33:50.427Z,1015.07
2023-04-08T06:34:50.211Z,1015.09
2023-04-08T06:35:50.172Z,1015.11
2023-04-08T06:36:50.133Z,1015.13
2023-04-08T06:37:50.134Z,1015.10
2023-04-08T06:38:50.269Z,1015.15
2023-04-08T06:39:50.118Z,1015.16
2023-04-08T06:40:50.085Z,1015.12
2023-04-08T06:41:50.082Z,1015.16
2023-04-08T06:42:50.054Z,1015.10
2023-04-08T06:43:50.061Z,1015.14
2023-04-08T06:44:50.099Z,1015.15
2023-04-08T06:45:50.063Z,1015.18
2023-04-08T06:46:50.021Z,1015.20
2023-04-08T06:47:50.099Z,1015.22
2023-04-08T06:48:50.110Z,1015.22
2023-04-08T06:49:50.035Z,1015.25
2023-04-08T06:50:49.951Z,1015.26
2023-04-08T06:51:49.969Z,1015.27
2023-04-08T06:52:49.960Z,1015.23
2023-04-08T06:53:49.937Z,1015.27
2023-04-08T06:54:49.975Z,1015.28
2023-04-08T06:55:49.916Z,1015.31
2023-04-08T06:56:49.900Z,1015.32
2023-04-08T06:57:49.888Z,1015.35
2023-04-08T06:58:50.061Z,1015.39
2023-04-08T06:59:49.910Z,1015.35
2023-04-08T07:00:49.891Z,1015.31
2023-04-08T07:01:49.963Z,1015.32
2023-04-08T07:02:49.910Z,1015.32
2023-04-08T07:03:49.896Z,1015.34
2023-04-08T07:04:49.860Z,1015.40
2023-04-08T07:05:49.801Z,1015.45
2023-04-08T07:06:49.791Z,1015.37
2023-04-08T07:07:49.765Z,1015.42
2023-04-08T07:08:49.976Z,1015.45
2023-04-08T07:09:49.803Z,1015.45
2023-04-08T07:10:49.737Z,1015.44
2023-04-08T07:11:49.762Z,1015.45
2023-04-08T07:12:49.729Z,1015.45
2023-04-08T07:13:49.887Z,1015.43
2023-04-08T07:14:49.749Z,1015.44
2023-04-08T07:15:49.688Z,1015.45
2023-04-08T07:16:49.721Z,1015.45
2023-04-08T07:17:49.694Z,1015.48
2023-04-08T07:18:49.850Z,1015.48
2023-04-08T07:19:49.687Z,1015.47
2023-04-08T07:20:49.640Z,1015.40
2023-04-08T07:21:49.625Z,1015.50
2023-04-08T07:22:49.599Z,1015.50
2023-04-08T07:23:49.610Z,1015.50
2023-04-08T07:24:49.681Z,1015.51
2023-04-08T07:25:49.583Z,1015.53
2023-04-08T07:26:49.566Z,1015.52
2023-04-08T07:27:49.556Z,1015.54
2023-04-08T07:28:49.845Z,1015.51
2023-04-08T07:29:49.569Z,1015.51
2023-04-08T07:30:49.562Z,1015.57
2023-04-08T07:31:49.531Z,1015.62
2023-04-08T07:32:49.491Z,1015.64
2023-04-08T07:33:49.479Z,1015.62
2023-04-08T07:34:49.515Z,1015.57
2023-04-08T07:35:49.542Z,1015.59
2023-04-08T07:36:49.450Z,1015.59
2023-04-08T07:37:49.440Z,1015.61
2023-04-08T07:38:49.701Z,1015.63
2023-04-08T07:39:49.460Z,1015.63
2023-04-08T07:40:49.491Z,1015.69
2023-04-08T07:41:49.364Z,1015.65
2023-04-08T07:42:49.386Z,1015.65
2023-04-08T07:43:49.368Z,1015.68
2023-04-08T07:44:49.392Z,1015.68
2023-04-08T07:45:49.386Z,1015.69
2023-04-08T07:46:49.351Z,1015.64
2023-04-08T07:47:49.404Z,1015.66
2023-04-08T07:48:49.614Z,1015.66
2023-04-08T07:49:49.333Z,1015.65
2023-04-08T07:51:08.196Z,1015.67
2023-04-08T07:51:50.275Z,1015.71
2023-04-08T07:52:49.262Z,1015.67
2023-04-08T07:53:49.243Z,1015.74
2023-04-08T07:54:49.256Z,1015.71
2023-04-08T07:55:49.254Z,1015.71
2023-04-08T07:56:49.214Z,1015.73
2023-04-08T07:57:49.201Z,1015.72
2023-04-08T07:58:51.206Z,1015.78
2023-04-08T07:59:49.170Z,1015.76
2023-04-08T08:00:49.219Z,1015.73
2023-04-08T08:01:49.256Z,1015.74
2023-04-08T08:02:49.268Z,1015.73
2023-04-08T08:03:49.422Z,1015.80
2023-04-08T08:04:49.128Z,1015.78
2023-04-08T08:05:49.160Z,1015.77
2023-04-08T08:06:49.084Z,1015.80
2023-04-08T08:07:49.092Z,1015.86
2023-04-08T08:08:49.082Z,1015.86
2023-04-08T08:09:49.063Z,1015.85
2023-04-08T08:10:49.094Z,1015.83
2023-04-08T08:11:49.031Z,1015.89
2023-04-08T08:12:49.025Z,1015.88
2023-04-08T08:13:49.232Z,1015.92
2023-04-08T08:14:49.014Z,1015.96
2023-04-08T08:15:49.085Z,1015.96
2023-04-08T08:16:48.979Z,1015.88
2023-04-08T08:17:49.050Z,1015.85
2023-04-08T08:18:49.000Z,1015.80
2023-04-08T08:19:48.953Z,1015.84
2023-04-08T08:20:48.994Z,1015.80
2023-04-08T08:21:48.963Z,1015.77
2023-04-08T08:22:57.116Z,1015.85
2023-04-08T08:23:50.139Z,1015.85
2023-04-08T08:24:48.896Z,1015.90
2023-04-08T08:25:48.944Z,1015.85
2023-04-08T08:26:48.875Z,1015.89
2023-04-08T08:27:48.853Z,1015.92
2023-04-08T08:28:48.866Z,1015.92
2023-04-08T08:29:48.863Z,1015.92
2023-04-08T08:30:48.887Z,1015.94
2023-04-08T08:31:48.872Z,1015.91
2023-04-08T08:32:48.807Z,1015.94
2023-04-08T08:33:49.047Z,1015.93
2023-04-08T08:34:48.772Z,1015.91
2023-04-08T08:35:48.866Z,1015.96
2023-04-08T08:36:48.763Z,1015.95
2023-04-08T08:37:48.743Z,1016.03
2023-04-08T08:38:48.843Z,1016.04
2023-04-08T08:39:48.783Z,1016.09
2023-04-08T08:40:48.771Z,1016.07
2023-04-08T08:41:48.699Z,1016.03
2023-04-08T08:42:48.706Z,1016.10
2023-04-08T08:43:48.981Z,1016.08
2023-04-08T08:44:48.687Z,1016.10
2023-04-08T08:45:48.705Z,1016.10
2023-04-08T08:46:48.676Z,1016.19
2023-04-08T08:47:50.962Z,1016.15
2023-04-08T08:48:48.649Z,1016.14
2023-04-08T08:49:48.619Z,1016.22
2023-04-08T08:50:48.668Z,1016.22
2023-04-08T08:51:48.592Z,1016.24
2023-04-08T08:52:48.633Z,1016.26
2023-04-08T08:53:48.555Z,1016.22
2023-04-08T08:54:48.563Z,1016.33
2023-04-08T08:56:09.360Z,1016.35
2023-04-08T08:56:49.534Z,1016.40
2023-04-08T08:57:48.538Z,1016.43
2023-04-08T08:58:48.522Z,1016.41
2023-04-08T08:59:48.568Z,1016.45
2023-04-08T09:00:48.537Z,1016.55
2023-04-08T09:01:48.534Z,1016.52
2023-04-08T09:02:48.652Z,1016.49
2023-04-08T09:03:48.609Z,1016.49
2023-04-08T09:04:48.572Z,1016.56
2023-04-08T09:05:48.489Z,1016.54
2023-04-08T09:06:48.410Z,1016.61
2023-04-08T09:07:48.502Z,1016.53
2023-04-08T09:08:48.406Z,1016.68
2023-04-08T09:09:48.388Z,1016.51
2023-04-08T09:10:48.431Z,1016.56
2023-04-08T09:11:48.410Z,1016.53
2023-04-08T09:12:48.403Z,1016.53
2023-04-08T09:13:48.549Z,1016.50
2023-04-08T09:14:48.340Z,1016.53
2023-04-08T09:15:48.380Z,1016.54
2023-04-08T09:16:48.618Z,1016.62
2023-04-08T09:17:48.317Z,1016.60
2023-04-08T09:18:49.397Z,1016.67
2023-04-08T09:19:48.258Z,1016.68
2023-04-08T09:20:48.325Z,1016.70
2023-04-08T09:21:48.260Z,1016.74
2023-04-08T09:22:48.319Z,1016.67
2023-04-08T09:23:48.472Z,1016.73
2023-04-08T09:24:48.254Z,1016.79
2023-04-08T09:25:48.297Z,1016.76
2023-04-08T09:26:48.188Z,1016.79
2023-04-08T09:27:48.238Z,1016.81
2023-04-08T09:28:48.189Z,1016.78
2023-04-08T09:29:48.125Z,1016.88
2023-04-08T09:30:48.181Z,1016.87
2023-04-08T09:31:48.140Z,1016.92
2023-04-08T09:32:48.186Z,1016.84
2023-04-08T09:33:48.241Z,1016.89
2023-04-08T09:34:48.128Z,1016.94
2023-04-08T09:35:48.215Z,1017.00
2023-04-08T09:36:48.070Z,1017.01
2023-04-08T09:37:48.085Z,1016.94
2023-04-08T09:38:48.086Z,1016.95
2023-04-08T09:39:48.168Z,1016.99
2023-04-08T09:40:48.061Z,1016.97
2023-04-08T09:41:48.016Z,1016.92
2023-04-08T09:42:48.007Z,1016.99
2023-04-08T09:43:48.260Z,1017.04
2023-04-08T09:44:47.997Z,1017.02
2023-04-08T09:45:48.102Z,1017.00
2023-04-08T09:46:47.978Z,1016.98
2023-04-08T09:47:48.052Z,1017.02
2023-04-08T09:48:48.001Z,1017.01
2023-04-08T09:49:47.929Z,1017.03
2023-04-08T09:50:47.980Z,1017.04
2023-04-08T09:51:47.910Z,1017.12
2023-04-08T09:52:47.909Z,1016.99
2023-04-08T09:53:48.015Z,1017.05
2023-04-08T09:54:47.880Z,1017.01
2023-04-08T09:55:47.991Z,1017.06
2023-04-08T09:56:47.866Z,1017.07
2023-04-08T09:57:47.807Z,1017.09
2023-04-08T09:58:47.802Z,1017.04
2023-04-08T09:59:47.822Z,1017.13
2023-04-08T10:00:47.899Z,1017.11
2023-04-08T10:01:47.854Z,1017.15
2023-04-08T10:02:47.952Z,1017.15
2023-04-08T10:03:47.873Z,1017.15
2023-04-08T10:04:47.794Z,1017.10
2023-04-08T10:05:47.794Z,1017.11
2023-04-08T10:06:47.772Z,1017.11
2023-04-08T10:07:47.708Z,1017.20
2023-04-08T10:08:47.725Z,1017.17
2023-04-08T10:09:47.718Z,1017.21
2023-04-08T10:10:48.029Z,1017.19
2023-04-08T10:11:47.672Z,1017.19
2023-04-08T10:12:47.669Z,1017.18
2023-04-08T10:13:47.713Z,1017.22
2023-04-08T10:14:47.671Z,1017.17
2023-04-08T10:15:47.709Z,1017.19
2023-04-08T10:16:47.649Z,1017.23
2023-04-08T10:17:47.646Z,1017.18
2023-04-08T10:18:47.592Z,1017.20
2023-04-08T10:19:47.567Z,1017.25
2023-04-08T10:20:47.626Z,1017.23
2023-04-08T10:21:47.568Z,1017.21
2023-04-08T10:22:47.555Z,1017.20
2023-04-08T10:23:47.638Z,1017.25
2023-04-08T10:24:47.528Z,1017.32
2023-04-08T10:25:47.635Z,1017.27
2023-04-08T10:26:47.518Z,1017.31
2023-04-08T10:27:47.528Z,1017.31
2023-04-08T10:28:47.493Z,1017.34
2023-04-08T10:29:47.475Z,1017.32
2023-04-08T10:30:47.553Z,1017.31
2023-04-08T10:31:47.516Z,1017.31
2023-04-08T10:32:47.463Z,1017.31
2023-04-08T10:33:47.461Z,1017.36
2023-04-08T10:34:47.407Z,1017.33
2023-04-08T10:35:47.516Z,1017.38
2023-04-08T10:36:47.399Z,1017.34
2023-04-08T10:37:47.375Z,1017.40
2023-04-08T10:38:47.386Z,1017.40
2023-04-08T10:39:47.349Z,1017.31
2023-04-08T10:40:47.411Z,1017.38
2023-04-08T10:41:47.373Z,1017.43
2023-04-08T10:42:47.314Z,1017.45
2023-04-08T10:43:47.322Z,1017.36
2023-04-08T10:44:47.265Z,1017.39
2023-04-08T10:45:48.674Z,1017.37
2023-04-08T10:46:47.261Z,1017.37
2023-04-08T10:47:47.281Z,1017.39
2023-04-08T10:48:47.240Z,1017.46
2023-04-08T10:49:47.236Z,1017.40
2023-04-08T10:50:47.224Z,1017.43
2023-04-08T10:51:47.258Z,1017.42
2023-04-08T10:52:47.185Z,1017.43
2023-04-08T10:53:47.197Z,1017.47
2023-04-08T10:54:47.173Z,1017.46
2023-04-08T10:55:47.160Z,1017.51
2023-04-08T10:56:47.205Z,1017.51
2023-04-08T10:57:47.158Z,1017.47
2023-04-08T10:58:47.140Z,1017.48
2023-04-08T10:59:47.097Z,1017.46
2023-04-08T11:00:47.121Z,1017.46
2023-04-08T11:01:47.265Z,1017.43
2023-04-08T11:02:47.179Z,1017.37
2023-04-08T11:03:47.364Z,1017.36
2023-04-08T11:04:47.084Z,1017.35
2023-04-08T11:05:47.056Z,1017.39
2023-04-08T11:06:47.088Z,1017.41
2023-04-08T11:07:47.086Z,1017.42
2023-04-08T11:08:47.031Z,1017.40
2023-04-08T11:09:47.001Z,1017.39
2023-04-08T11:10:47.026Z,1017.44
2023-04-08T11:11:47.027Z,1017.40
2023-04-08T11:12:46.978Z,1017.43
2023-04-08T11:13:53.484Z,1017.45
2023-04-08T11:14:49.470Z,1017.44
2023-04-08T11:15:46.976Z,1017.52
2023-04-08T11:16:46.972Z,1017.43
2023-04-08T11:17:46.949Z,1017.54
2023-04-08T11:18:46.884Z,1017.51
2023-04-08T11:19:46.985Z,1017.47
2023-04-08T11:20:46.872Z,1017.52
2023-04-08T11:21:46.900Z,1017.60
2023-04-08T11:22:46.852Z,1017.53
2023-04-08T11:23:46.862Z,1017.57
2023-04-08T11:24:46.839Z,1017.57
2023-04-08T11:25:46.838Z,1017.58
2023-04-08T11:26:46.859Z,1017.54
2023-04-08T11:27:46.813Z,1017.59
2023-04-08T11:28:46.766Z,1017.50
2023-04-08T11:29:46.780Z,1017.60
2023-04-08T11:30:46.788Z,1017.67
2023-04-08T11:31:46.824Z,1017.66
2023-04-08T11:32:46.789Z,1017.66
2023-04-08T11:33:46.729Z,1017.63
2023-04-08T11:34:46.708Z,1017.59
2023-04-08T11:35:46.739Z,1017.60
2023-04-08T11:36:46.752Z,1017.69
2023-04-08T11:37:46.687Z,1017.65
2023-04-08T11:38:46.662Z,1017.72
2023-04-08T11:39:46.640Z,1017.68
2023-04-08T11:40:46.649Z,1017.70
2023-04-08T11:41:46.669Z,1017.71
2023-04-08T11:42:47.171Z,1017.72
2023-04-08T11:43:46.587Z,1017.76
2023-04-08T11:44:46.599Z,1017.77
2023-04-08T11:45:46.566Z,1017.75
2023-04-08T11:46:46.624Z,1017.80
2023-04-08T11:47:46.619Z,1017.76
2023-04-08T11:48:46.568Z,1017.80
2023-04-08T11:49:46.577Z,1017.74
2023-04-08T11:50:46.557Z,1017.79
2023-04-08T11:51:46.563Z,1017.78
2023-04-08T11:52:46.524Z,1017.79
2023-04-08T11:53:46.547Z,1017.78
2023-04-08T11:54:46.494Z,1017.80
2023-04-08T11:55:46.480Z,1017.77
2023-04-08T11:56:46.504Z,1017.79
2023-04-08T11:57:46.463Z,1017.79
2023-04-08T11:58:46.467Z,1017.80
2023-04-08T11:59:46.425Z,1017.81
2023-04-08T12:00:46.414Z,1017.79
2023-04-08T12:01:46.470Z,1017.83
2023-04-08T12:02:46.482Z,1017.74
2023-04-08T12:03:46.538Z,1017.80
2023-04-08T12:04:46.430Z,1017.82
2023-04-08T12:05:46.368Z,1017.82